sensor_id;sensor_type;location;lat;lon;timestamp;temperature;humidity
9167;DHT22;4618;48.818;9.088;2023-03-23T00:00:54;14.20;1.00
9167;DHT22;4618;48.818;9.088;2023-03-23T00:03:21;14.30;1.00
9167;DHT22;4618;48.818;9.088;2023-03-23T00:05:47;14.20;1.00
9167;DHT22;4618;48.818;9.088;2023-03-23T00:08:19;14.20;1.00
9167;DHT22;4618;48.818;9.088;2023-03-23T00:10:49;14.20;1.00
9167;DHT22;4618;48.818;9.088;2023-03-23T00:13:15;14.30;1.00
9167;DHT22;4618;48.818;9.088;2023-03-23T00:15:45;14.20;1.00
9167;DHT22;4618;48.818;9.088;2023-03-23T00:18:11;14.20;1.00
9167;DHT22;4618;48.818;9.088;2023-03-23T00:20:46;14.10;1.00
9167;DHT22;4618;48.818;9.088;2023-03-23T00:23:15;14.10;1.00
9167;DHT22;4618;48.818;9.088;2023-03-23T00:25:45;14.10;1.00
9167;DHT22;4618;48.818;9.088;2023-03-23T00:28:11;14.10;1.00
9167;DHT22;4618;48.818;9.088;2023-03-23T00:30:39;14.10;1.00
9167;DHT22;4618;48.818;9.088;2023-03-23T00:33:04;14.20;1.00
9167;DHT22;4618;48.818;9.088;2023-03-23T00:35:30;14.20;1.00
9167;DHT22;4618;48.818;9.088;2023-03-23T00:37:58;14.30;1.00
9167;DHT22;4618;48.818;9.088;2023-03-23T00:40:24;14.30;1.00
9167;DHT22;4618;48.818;9.088;2023-03-23T00:42:50;14.30;1.00
9167;DHT22;4618;48.818;9.088;2023-03-23T00:45:15;14.30;1.00
9167;DHT22;4618;48.818;9.088;2023-03-23T00:47:41;14.30;1.00
9167;DHT22;4618;48.818;9.088;2023-03-23T00:50:12;14.20;1.00
9167;DHT22;4618;48.818;9.088;2023-03-23T00:52:41;14.20;1.00
9167;DHT22;4618;48.818;9.088;2023-03-23T00:55:07;14.20;1.00
9167;DHT22;4618;48.818;9.088;2023-03-23T00:57:32;14.20;1.00
9167;DHT22;4618;48.818;9.088;2023-03-23T00:59:58;14.10;1.00
9167;DHT22;4618;48.818;9.088;2023-03-23T01:02:24;14.10;1.00
9167;DHT22;4618;48.818;9.088;2023-03-23T01:04:52;14.20;1.00
9167;DHT22;4618;48.818;9.088;2023-03-23T01:07:19;14.10;1.00
9167;DHT22;4618;48.818;9.088;2023-03-23T01:09:46;14.20;1.00
9167;DHT22;4618;48.818;9.088;2023-03-23T01:12:12;14.20;1.00
9167;DHT22;4618;48.818;9.088;2023-03-23T01:14:37;14.10;1.00
9167;DHT22;4618;48.818;9.088;2023-03-23T01:17:03;14.10;1.00
9167;DHT22;4618;48.818;9.088;2023-03-23T01:19:29;14.10;1.00
9167;DHT22;4618;48.818;9.088;2023-03-23T01:21:55;14.10;1.00
9167;DHT22;4618;48.818;9.088;2023-03-23T01:24:20;14.10;1.00
9167;DHT22;4618;48.818;9.088;2023-03-23T01:26:46;14.20;1.00
9167;DHT22;4618;48.818;9.088;2023-03-23T01:29:12;14.20;1.00
9167;DHT22;4618;48.818;9.088;2023-03-23T01:31:39;14.20;1.00
9167;DHT22;4618;48.818;9.088;2023-03-23T01:34:04;14.10;1.00
9167;DHT22;4618;48.818;9.088;2023-03-23T01:36:31;14.20;1.00
9167;DHT22;4618;48.818;9.088;2023-03-23T01:38:59;14.20;1.00
9167;DHT22;4618;48.818;9.088;2023-03-23T01:41:26;14.10;1.00
9167;DHT22;4618;48.818;9.088;2023-03-23T01:43:57;14.20;1.00
9167;DHT22;4618;48.818;9.088;2023-03-23T01:46:26;14.20;1.00
9167;DHT22;4618;48.818;9.088;2023-03-23T01:48:52;14.10;1.00
9167;DHT22;4618;48.818;9.088;2023-03-23T01:51:20;14.00;1.00
9167;DHT22;4618;48.818;9.088;2023-03-23T01:53:51;14.00;1.00
9167;DHT22;4618;48.818;9.088;2023-03-23T01:56:21;14.00;1.00
9167;DHT22;4618;48.818;9.088;2023-03-23T01:58:51;13.90;1.00
9167;DHT22;4618;48.818;9.088;2023-03-23T02:01:16;13.90;1.00
9167;DHT22;4618;48.818;9.088;2023-03-23T02:03:44;13.80;1.00
9167;DHT22;4618;48.818;9.088;2023-03-23T02:06:11;13.70;1.00
9167;DHT22;4618;48.818;9.088;2023-03-23T02:08:38;13.60;1.00
9167;DHT22;4618;48.818;9.088;2023-03-23T02:11:18;13.60;1.00
9167;DHT22;4618;48.818;9.088;2023-03-23T02:13:44;13.70;1.00
9167;DHT22;4618;48.818;9.088;2023-03-23T02:16:33;13.70;1.00
9167;DHT22;4618;48.818;9.088;2023-03-23T02:19:40;13.80;1.00
9167;DHT22;4618;48.818;9.088;2023-03-23T02:33:08;13.80;1.00
9167;DHT22;4618;48.818;9.088;2023-03-23T02:35:38;13.80;1.00
9167;DHT22;4618;48.818;9.088;2023-03-23T02:38:08;13.80;1.00
9167;DHT22;4618;48.818;9.088;2023-03-23T02:40:44;13.80;1.00
9167;DHT22;4618;48.818;9.088;2023-03-23T02:43:13;13.80;1.00
9167;DHT22;4618;48.818;9.088;2023-03-23T02:45:42;13.80;1.00
9167;DHT22;4618;48.818;9.088;2023-03-23T02:48:10;13.70;1.00
9167;DHT22;4618;48.818;9.088;2023-03-23T02:50:37;13.70;1.00
9167;DHT22;4618;48.818;9.088;2023-03-23T02:53:07;13.60;1.00
9167;DHT22;4618;48.818;9.088;2023-03-23T02:55:34;13.50;1.00
9167;DHT22;4618;48.818;9.088;2023-03-23T02:58:01;13.50;1.00
9167;DHT22;4618;48.818;9.088;2023-03-23T03:00:27;13.50;1.00
9167;DHT22;4618;48.818;9.088;2023-03-23T03:02:54;13.50;1.00
9167;DHT22;4618;48.818;9.088;2023-03-23T03:11:05;13.60;1.00
9167;DHT22;4618;48.818;9.088;2023-03-23T03:13:44;13.60;1.00
9167;DHT22;4618;48.818;9.088;2023-03-23T03:18:56;14.00;1.00
9167;DHT22;4618;48.818;9.088;2023-03-23T03:21:26;14.00;1.00
9167;DHT22;4618;48.818;9.088;2023-03-23T03:23:55;14.00;1.00
9167;DHT22;4618;48.818;9.088;2023-03-23T03:26:24;14.00;1.00
9167;DHT22;4618;48.818;9.088;2023-03-23T03:28:52;14.10;1.00
9167;DHT22;4618;48.818;9.088;2023-03-23T03:31:22;14.10;1.00
9167;DHT22;4618;48.818;9.088;2023-03-23T03:33:49;14.20;1.00
9167;DHT22;4618;48.818;9.088;2023-03-23T03:36:19;14.10;1.00
9167;DHT22;4618;48.818;9.088;2023-03-23T03:38:48;14.10;1.00
9167;DHT22;4618;48.818;9.088;2023-03-23T03:41:14;14.10;1.00
9167;DHT22;4618;48.818;9.088;2023-03-23T03:43:40;14.10;1.00
9167;DHT22;4618;48.818;9.088;2023-03-23T03:46:06;14.00;1.00
9167;DHT22;4618;48.818;9.088;2023-03-23T03:48:32;14.00;1.00
9167;DHT22;4618;48.818;9.088;2023-03-23T03:50:57;14.00;1.00
9167;DHT22;4618;48.818;9.088;2023-03-23T03:53:28;14.20;1.00
9167;DHT22;4618;48.818;9.088;2023-03-23T03:55:54;14.20;1.00
9167;DHT22;4618;48.818;9.088;2023-03-23T03:58:22;14.20;1.00
9167;DHT22;4618;48.818;9.088;2023-03-23T04:00:49;14.20;1.00
9167;DHT22;4618;48.818;9.088;2023-03-23T04:03:15;14.20;1.00
9167;DHT22;4618;48.818;9.088;2023-03-23T04:05:42;14.20;1.00
9167;DHT22;4618;48.818;9.088;2023-03-23T04:08:10;14.10;1.00
9167;DHT22;4618;48.818;9.088;2023-03-23T04:10:36;14.20;1.00
9167;DHT22;4618;48.818;9.088;2023-03-23T04:13:02;14.10;1.00
9167;DHT22;4618;48.818;9.088;2023-03-23T04:15:30;14.00;1.00
9167;DHT22;4618;48.818;9.088;2023-03-23T04:17:55;14.00;1.00
9167;DHT22;4618;48.818;9.088;2023-03-23T04:20:23;14.00;1.00
9167;DHT22;4618;48.818;9.088;2023-03-23T04:22:49;14.10;1.00
9167;DHT22;4618;48.818;9.088;2023-03-23T04:25:17;14.10;1.00
9167;DHT22;4618;48.818;9.088;2023-03-23T04:27:46;14.00;1.00
9167;DHT22;4618;48.818;9.088;2023-03-23T04:30:21;14.00;1.00
9167;DHT22;4618;48.818;9.088;2023-03-23T04:32:50;14.00;1.00
9167;DHT22;4618;48.818;9.088;2023-03-23T04:35:18;14.00;1.00
9167;DHT22;4618;48.818;9.088;2023-03-23T04:37:44;13.90;1.00
9167;DHT22;4618;48.818;9.088;2023-03-23T04:40:11;14.00;1.00
9167;DHT22;4618;48.818;9.088;2023-03-23T04:42:38;14.00;1.00
9167;DHT22;4618;48.818;9.088;2023-03-23T04:45:06;14.00;1.00
9167;DHT22;4618;48.818;9.088;2023-03-23T04:47:35;14.00;1.00
9167;DHT22;4618;48.818;9.088;2023-03-23T04:50:07;14.20;1.00
9167;DHT22;4618;48.818;9.088;2023-03-23T04:52:33;14.20;1.00
9167;DHT22;4618;48.818;9.088;2023-03-23T04:54:59;14.30;1.00
9167;DHT22;4618;48.818;9.088;2023-03-23T04:57:24;14.30;1.00
9167;DHT22;4618;48.818;9.088;2023-03-23T04:59:53;14.30;1.00
9167;DHT22;4618;48.818;9.088;2023-03-23T05:02:19;14.30;1.00
9167;DHT22;4618;48.818;9.088;2023-03-23T05:04:45;14.30;1.00
9167;DHT22;4618;48.818;9.088;2023-03-23T05:07:11;14.30;1.00
9167;DHT22;4618;48.818;9.088;2023-03-23T05:09:37;14.30;1.00
9167;DHT22;4618;48.818;9.088;2023-03-23T05:12:07;14.30;1.00
9167;DHT22;4618;48.818;9.088;2023-03-23T05:14:32;14.30;1.00
9167;DHT22;4618;48.818;9.088;2023-03-23T05:16:58;14.20;1.00
9167;DHT22;4618;48.818;9.088;2023-03-23T05:19:24;14.20;1.00
9167;DHT22;4618;48.818;9.088;2023-03-23T05:21:49;14.30;1.00
9167;DHT22;4618;48.818;9.088;2023-03-23T05:24:15;14.20;1.00
9167;DHT22;4618;48.818;9.088;2023-03-23T05:26:41;14.20;1.00
9167;DHT22;4618;48.818;9.088;2023-03-23T05:29:06;14.20;1.00
9167;DHT22;4618;48.818;9.088;2023-03-23T05:31:32;14.30;1.00
9167;DHT22;4618;48.818;9.088;2023-03-23T05:33:57;14.20;1.00
9167;DHT22;4618;48.818;9.088;2023-03-23T05:36:23;14.10;1.00
9167;DHT22;4618;48.818;9.088;2023-03-23T05:38:52;14.20;1.00
9167;DHT22;4618;48.818;9.088;2023-03-23T05:41:18;14.20;1.00
9167;DHT22;4618;48.818;9.088;2023-03-23T05:43:43;14.10;1.00
9167;DHT22;4618;48.818;9.088;2023-03-23T05:46:09;14.10;1.00
9167;DHT22;4618;48.818;9.088;2023-03-23T05:48:34;14.10;1.00
9167;DHT22;4618;48.818;9.088;2023-03-23T05:51:01;14.10;1.00
9167;DHT22;4618;48.818;9.088;2023-03-23T05:53:28;14.20;1.00
9167;DHT22;4618;48.818;9.088;2023-03-23T05:55:58;14.10;1.00
9167;DHT22;4618;48.818;9.088;2023-03-23T05:58:24;14.00;1.00
9167;DHT22;4618;48.818;9.088;2023-03-23T06:00:49;14.00;1.00
9167;DHT22;4618;48.818;9.088;2023-03-23T06:03:15;14.10;1.00
9167;DHT22;4618;48.818;9.088;2023-03-23T06:05:44;14.20;1.00
9167;DHT22;4618;48.818;9.088;2023-03-23T06:08:10;14.10;1.00
9167;DHT22;4618;48.818;9.088;2023-03-23T06:10:36;14.20;1.00
9167;DHT22;4618;48.818;9.088;2023-03-23T06:13:03;14.10;1.00
9167;DHT22;4618;48.818;9.088;2023-03-23T06:15:29;14.20;1.00
9167;DHT22;4618;48.818;9.088;2023-03-23T06:18:00;14.10;1.00
9167;DHT22;4618;48.818;9.088;2023-03-23T06:20:26;14.10;1.00
9167;DHT22;4618;48.818;9.088;2023-03-23T06:22:52;14.10;1.00
9167;DHT22;4618;48.818;9.088;2023-03-23T06:25:18;14.20;1.00
9167;DHT22;4618;48.818;9.088;2023-03-23T06:27:43;14.20;1.00
9167;DHT22;4618;48.818;9.088;2023-03-23T06:30:12;14.20;1.00
9167;DHT22;4618;48.818;9.088;2023-03-23T06:32:41;14.20;1.00
9167;DHT22;4618;48.818;9.088;2023-03-23T06:35:08;14.20;1.00
9167;DHT22;4618;48.818;9.088;2023-03-23T06:37:35;14.20;1.00
9167;DHT22;4618;48.818;9.088;2023-03-23T06:40:02;14.30;1.00
9167;DHT22;4618;48.818;9.088;2023-03-23T06:42:29;14.30;1.00
9167;DHT22;4618;48.818;9.088;2023-03-23T06:44:55;14.40;1.00
9167;DHT22;4618;48.818;9.088;2023-03-23T06:47:23;14.40;1.00
9167;DHT22;4618;48.818;9.088;2023-03-23T06:49:48;14.50;1.00
9167;DHT22;4618;48.818;9.088;2023-03-23T06:52:14;14.70;1.00
9167;DHT22;4618;48.818;9.088;2023-03-23T06:54:40;14.80;1.00
9167;DHT22;4618;48.818;9.088;2023-03-23T06:57:06;14.90;1.00
9167;DHT22;4618;48.818;9.088;2023-03-23T06:59:32;14.80;1.00
9167;DHT22;4618;48.818;9.088;2023-03-23T07:01:58;14.60;1.00
9167;DHT22;4618;48.818;9.088;2023-03-23T07:04:23;14.50;1.00
9167;DHT22;4618;48.818;9.088;2023-03-23T07:06:49;14.60;1.00
9167;DHT22;4618;48.818;9.088;2023-03-23T07:09:15;14.40;1.00
9167;DHT22;4618;48.818;9.088;2023-03-23T07:11:40;14.40;1.00
9167;DHT22;4618;48.818;9.088;2023-03-23T07:14:06;14.40;1.00
9167;DHT22;4618;48.818;9.088;2023-03-23T07:16:32;14.40;1.00
9167;DHT22;4618;48.818;9.088;2023-03-23T07:18:58;14.40;1.00
9167;DHT22;4618;48.818;9.088;2023-03-23T07:21:24;14.40;1.00
9167;DHT22;4618;48.818;9.088;2023-03-23T07:23:50;14.40;1.00
9167;DHT22;4618;48.818;9.088;2023-03-23T07:26:15;14.50;1.00
9167;DHT22;4618;48.818;9.088;2023-03-23T07:28:42;14.40;1.00
9167;DHT22;4618;48.818;9.088;2023-03-23T07:31:07;14.50;1.00
9167;DHT22;4618;48.818;9.088;2023-03-23T07:33:35;14.50;1.00
9167;DHT22;4618;48.818;9.088;2023-03-23T07:36:01;14.50;1.00
9167;DHT22;4618;48.818;9.088;2023-03-23T07:38:28;14.60;1.00
9167;DHT22;4618;48.818;9.088;2023-03-23T07:40:55;14.80;1.00
9167;DHT22;4618;48.818;9.088;2023-03-23T07:43:21;14.80;1.00
9167;DHT22;4618;48.818;9.088;2023-03-23T07:45:47;14.90;1.00
9167;DHT22;4618;48.818;9.088;2023-03-23T07:48:13;15.20;1.00
9167;DHT22;4618;48.818;9.088;2023-03-23T07:50:39;15.40;1.00
9167;DHT22;4618;48.818;9.088;2023-03-23T07:53:05;15.60;1.00
9167;DHT22;4618;48.818;9.088;2023-03-23T07:55:31;16.10;1.00
9167;DHT22;4618;48.818;9.088;2023-03-23T07:57:57;16.40;1.00
9167;DHT22;4618;48.818;9.088;2023-03-23T08:00:23;16.40;1.00
9167;DHT22;4618;48.818;9.088;2023-03-23T08:02:58;16.50;1.00
9167;DHT22;4618;48.818;9.088;2023-03-23T08:05:25;16.60;1.00
9167;DHT22;4618;48.818;9.088;2023-03-23T08:07:52;16.50;1.00
9167;DHT22;4618;48.818;9.088;2023-03-23T08:10:20;16.40;1.00
9167;DHT22;4618;48.818;9.088;2023-03-23T08:12:51;16.30;1.00
9167;DHT22;4618;48.818;9.088;2023-03-23T08:15:17;16.30;1.00
9167;DHT22;4618;48.818;9.088;2023-03-23T08:17:43;16.40;1.00
9167;DHT22;4618;48.818;9.088;2023-03-23T08:20:10;16.40;1.00
9167;DHT22;4618;48.818;9.088;2023-03-23T08:22:43;16.40;1.00
9167;DHT22;4618;48.818;9.088;2023-03-23T08:25:11;16.50;1.00
9167;DHT22;4618;48.818;9.088;2023-03-23T08:27:38;16.60;1.00
9167;DHT22;4618;48.818;9.088;2023-03-23T08:30:12;16.60;1.00
9167;DHT22;4618;48.818;9.088;2023-03-23T08:32:39;16.60;1.00
9167;DHT22;4618;48.818;9.088;2023-03-23T08:35:06;16.60;1.00
9167;DHT22;4618;48.818;9.088;2023-03-23T08:37:32;16.60;1.00
9167;DHT22;4618;48.818;9.088;2023-03-23T08:39:58;16.50;1.00
9167;DHT22;4618;48.818;9.088;2023-03-23T08:42:24;16.10;1.00
9167;DHT22;4618;48.818;9.088;2023-03-23T08:44:51;15.80;1.00
9167;DHT22;4618;48.818;9.088;2023-03-23T08:47:16;15.70;1.00
9167;DHT22;4618;48.818;9.088;2023-03-23T08:49:43;15.60;1.00
9167;DHT22;4618;48.818;9.088;2023-03-23T08:52:08;15.50;1.00
9167;DHT22;4618;48.818;9.088;2023-03-23T08:54:34;15.40;1.00
9167;DHT22;4618;48.818;9.088;2023-03-23T08:57:01;15.30;1.00
9167;DHT22;4618;48.818;9.088;2023-03-23T08:59:26;15.30;1.00
9167;DHT22;4618;48.818;9.088;2023-03-23T09:01:53;15.30;1.00
9167;DHT22;4618;48.818;9.088;2023-03-23T09:04:18;15.20;1.00
9167;DHT22;4618;48.818;9.088;2023-03-23T09:06:44;15.20;1.00
9167;DHT22;4618;48.818;9.088;2023-03-23T09:09:11;15.20;1.00
9167;DHT22;4618;48.818;9.088;2023-03-23T09:11:37;15.10;1.00
9167;DHT22;4618;48.818;9.088;2023-03-23T09:14:06;15.20;1.00
9167;DHT22;4618;48.818;9.088;2023-03-23T09:16:32;15.30;1.00
9167;DHT22;4618;48.818;9.088;2023-03-23T09:18:59;15.30;1.00
9167;DHT22;4618;48.818;9.088;2023-03-23T09:21:26;15.30;1.00
9167;DHT22;4618;48.818;9.088;2023-03-23T09:23:54;15.30;1.00
9167;DHT22;4618;48.818;9.088;2023-03-23T09:26:26;15.50;1.00
9167;DHT22;4618;48.818;9.088;2023-03-23T09:28:52;15.50;1.00
9167;DHT22;4618;48.818;9.088;2023-03-23T09:31:17;15.60;1.00
9167;DHT22;4618;48.818;9.088;2023-03-23T09:33:46;15.80;1.00
9167;DHT22;4618;48.818;9.088;2023-03-23T09:36:12;15.80;1.00
9167;DHT22;4618;48.818;9.088;2023-03-23T09:38:39;16.00;1.00
9167;DHT22;4618;48.818;9.088;2023-03-23T09:47:05;16.40;1.00
9167;DHT22;4618;48.818;9.088;2023-03-23T09:49:37;16.30;1.00
9167;DHT22;4618;48.818;9.088;2023-03-23T09:52:12;16.30;1.00
9167;DHT22;4618;48.818;9.088;2023-03-23T09:54:44;16.50;1.00
9167;DHT22;4618;48.818;9.088;2023-03-23T09:59:55;16.90;1.00
9167;DHT22;4618;48.818;9.088;2023-03-23T10:05:31;16.50;1.00
9167;DHT22;4618;48.818;9.088;2023-03-23T10:07:57;16.40;1.00
9167;DHT22;4618;48.818;9.088;2023-03-23T10:16:27;16.80;1.00
9167;DHT22;4618;48.818;9.088;2023-03-23T10:19:11;16.60;1.00
9167;DHT22;4618;48.818;9.088;2023-03-23T10:21:41;16.50;1.00
9167;DHT22;4618;48.818;9.088;2023-03-23T10:24:10;16.60;1.00
9167;DHT22;4618;48.818;9.088;2023-03-23T10:27:00;16.60;1.00
9167;DHT22;4618;48.818;9.088;2023-03-23T10:29:40;16.50;1.00
9167;DHT22;4618;48.818;9.088;2023-03-23T10:32:13;16.90;1.00
9167;DHT22;4618;48.818;9.088;2023-03-23T10:35:00;16.90;1.00
9167;DHT22;4618;48.818;9.088;2023-03-23T10:37:36;16.90;1.00
9167;DHT22;4618;48.818;9.088;2023-03-23T10:40:04;16.70;1.00
9167;DHT22;4618;48.818;9.088;2023-03-23T10:42:37;16.80;1.00
9167;DHT22;4618;48.818;9.088;2023-03-23T10:45:20;16.80;1.00
9167;DHT22;4618;48.818;9.088;2023-03-23T10:47:55;16.80;1.00
9167;DHT22;4618;48.818;9.088;2023-03-23T10:50:26;16.70;1.00
9167;DHT22;4618;48.818;9.088;2023-03-23T10:52:53;16.90;1.00
9167;DHT22;4618;48.818;9.088;2023-03-23T10:55:21;17.50;1.00
9167;DHT22;4618;48.818;9.088;2023-03-23T10:58:02;17.50;1.00
9167;DHT22;4618;48.818;9.088;2023-03-23T11:00:30;18.00;1.00
9167;DHT22;4618;48.818;9.088;2023-03-23T11:03:05;18.10;1.00
9167;DHT22;4618;48.818;9.088;2023-03-23T11:05:56;17.90;1.00
9167;DHT22;4618;48.818;9.088;2023-03-23T11:08:26;17.70;1.00
9167;DHT22;4618;48.818;9.088;2023-03-23T11:10:56;17.20;1.00
9167;DHT22;4618;48.818;9.088;2023-03-23T11:13:30;17.10;1.00
9167;DHT22;4618;48.818;9.088;2023-03-23T11:15:57;17.00;1.00
9167;DHT22;4618;48.818;9.088;2023-03-23T11:18:38;16.90;1.00
9167;DHT22;4618;48.818;9.088;2023-03-23T11:21:05;16.90;1.00
9167;DHT22;4618;48.818;9.088;2023-03-23T11:23:34;16.90;1.00
9167;DHT22;4618;48.818;9.088;2023-03-23T11:26:14;17.00;1.00
9167;DHT22;4618;48.818;9.088;2023-03-23T11:29:03;16.90;1.00
9167;DHT22;4618;48.818;9.088;2023-03-23T11:31:34;17.00;1.00
9167;DHT22;4618;48.818;9.088;2023-03-23T11:34:05;17.40;1.00
9167;DHT22;4618;48.818;9.088;2023-03-23T11:36:37;18.00;1.00
9167;DHT22;4618;48.818;9.088;2023-03-23T11:39:26;18.00;1.00
9167;DHT22;4618;48.818;9.088;2023-03-23T11:41:53;17.80;1.00
9167;DHT22;4618;48.818;9.088;2023-03-23T11:44:22;17.70;1.00
9167;DHT22;4618;48.818;9.088;2023-03-23T11:52:33;17.50;1.00
9167;DHT22;4618;48.818;9.088;2023-03-23T11:55:32;17.40;1.00
9167;DHT22;4618;48.818;9.088;2023-03-23T11:57:56;17.50;1.00
9167;DHT22;4618;48.818;9.088;2023-03-23T12:00:25;17.60;1.00
9167;DHT22;4618;48.818;9.088;2023-03-23T12:06:14;17.50;1.00
9167;DHT22;4618;48.818;9.088;2023-03-23T12:09:06;17.50;1.00
9167;DHT22;4618;48.818;9.088;2023-03-23T12:12:02;17.40;1.00
9167;DHT22;4618;48.818;9.088;2023-03-23T12:15:02;17.20;1.00
9167;DHT22;4618;48.818;9.088;2023-03-23T12:36:03;17.80;1.00
9167;DHT22;4618;48.818;9.088;2023-03-23T12:41:22;18.60;1.00
9167;DHT22;4618;48.818;9.088;2023-03-23T12:43:56;19.10;1.00
9167;DHT22;4618;48.818;9.088;2023-03-23T12:50:06;18.80;1.00
9167;DHT22;4618;48.818;9.088;2023-03-23T12:55:39;18.60;1.00
9167;DHT22;4618;48.818;9.088;2023-03-23T12:58:15;18.60;1.00
9167;DHT22;4618;48.818;9.088;2023-03-23T13:00:50;18.40;1.00
9167;DHT22;4618;48.818;9.088;2023-03-23T13:03:26;18.10;1.00
9167;DHT22;4618;48.818;9.088;2023-03-23T13:06:11;18.30;1.00
9167;DHT22;4618;48.818;9.088;2023-03-23T13:09:17;18.50;1.00
9167;DHT22;4618;48.818;9.088;2023-03-23T13:11:44;18.60;1.00
9167;DHT22;4618;48.818;9.088;2023-03-23T13:17:53;19.40;1.00
9167;DHT22;4618;48.818;9.088;2023-03-23T13:23:35;19.90;1.00
9167;DHT22;4618;48.818;9.088;2023-03-23T13:26:13;20.10;1.00
9167;DHT22;4618;48.818;9.088;2023-03-23T13:29:05;20.00;1.00
9167;DHT22;4618;48.818;9.088;2023-03-23T13:31:36;19.50;1.00
9167;DHT22;4618;48.818;9.088;2023-03-23T13:34:26;19.20;1.00
9167;DHT22;4618;48.818;9.088;2023-03-23T13:36:56;19.00;1.00
9167;DHT22;4618;48.818;9.088;2023-03-23T13:39:34;18.90;1.00
9167;DHT22;4618;48.818;9.088;2023-03-23T13:44:54;18.70;1.00
9167;DHT22;4618;48.818;9.088;2023-03-23T13:47:28;18.80;1.00
9167;DHT22;4618;48.818;9.088;2023-03-23T14:05:37;18.20;1.00
9167;DHT22;4618;48.818;9.088;2023-03-23T14:10:52;17.90;1.00
9167;DHT22;4618;48.818;9.088;2023-03-23T14:13:32;17.70;1.00
9167;DHT22;4618;48.818;9.088;2023-03-23T14:18:31;18.00;1.00
9167;DHT22;4618;48.818;9.088;2023-03-23T14:20:57;18.00;1.00
9167;DHT22;4618;48.818;9.088;2023-03-23T14:23:24;18.10;1.00
9167;DHT22;4618;48.818;9.088;2023-03-23T14:25:59;18.00;1.00
9167;DHT22;4618;48.818;9.088;2023-03-23T14:28:31;18.10;1.00
9167;DHT22;4618;48.818;9.088;2023-03-23T14:30:58;18.00;1.00
9167;DHT22;4618;48.818;9.088;2023-03-23T14:33:25;18.10;1.00
9167;DHT22;4618;48.818;9.088;2023-03-23T14:35:52;18.20;1.00
9167;DHT22;4618;48.818;9.088;2023-03-23T14:38:22;18.10;1.00
9167;DHT22;4618;48.818;9.088;2023-03-23T14:40:50;18.10;1.00
9167;DHT22;4618;48.818;9.088;2023-03-23T14:43:18;18.40;1.00
9167;DHT22;4618;48.818;9.088;2023-03-23T14:45:52;18.40;1.00
9167;DHT22;4618;48.818;9.088;2023-03-23T14:48:18;18.30;1.00
9167;DHT22;4618;48.818;9.088;2023-03-23T14:50:51;18.40;1.00
9167;DHT22;4618;48.818;9.088;2023-03-23T14:55:51;18.50;1.00
9167;DHT22;4618;48.818;9.088;2023-03-23T14:58:20;18.50;1.00
9167;DHT22;4618;48.818;9.088;2023-03-23T15:00:57;18.10;1.00
9167;DHT22;4618;48.818;9.088;2023-03-23T15:03:24;18.10;1.00
9167;DHT22;4618;48.818;9.088;2023-03-23T15:05:55;18.00;1.00
9167;DHT22;4618;48.818;9.088;2023-03-23T15:08:25;18.00;1.00
9167;DHT22;4618;48.818;9.088;2023-03-23T15:13:48;18.00;1.00
9167;DHT22;4618;48.818;9.088;2023-03-23T15:18:53;17.90;1.00
9167;DHT22;4618;48.818;9.088;2023-03-23T15:21:29;17.70;1.00
9167;DHT22;4618;48.818;9.088;2023-03-23T15:23:56;17.60;1.00
9167;DHT22;4618;48.818;9.088;2023-03-23T15:27:02;17.50;1.00
9167;DHT22;4618;48.818;9.088;2023-03-23T15:29:20;17.50;1.00
9167;DHT22;4618;48.818;9.088;2023-03-23T15:31:53;17.40;1.00
9167;DHT22;4618;48.818;9.088;2023-03-23T15:37:01;17.40;1.00
9167;DHT22;4618;48.818;9.088;2023-03-23T15:39:28;17.30;1.00
9167;DHT22;4618;48.818;9.088;2023-03-23T15:41:55;17.30;1.00
9167;DHT22;4618;48.818;9.088;2023-03-23T15:44:32;17.30;1.00
9167;DHT22;4618;48.818;9.088;2023-03-23T15:47:16;17.30;1.00
9167;DHT22;4618;48.818;9.088;2023-03-23T15:49:43;17.30;1.00
9167;DHT22;4618;48.818;9.088;2023-03-23T15:52:10;17.40;1.00
9167;DHT22;4618;48.818;9.088;2023-03-23T15:54:37;17.40;1.00
9167;DHT22;4618;48.818;9.088;2023-03-23T15:57:03;17.50;1.00
9167;DHT22;4618;48.818;9.088;2023-03-23T15:59:29;17.50;1.00
9167;DHT22;4618;48.818;9.088;2023-03-23T16:01:55;17.30;1.00
9167;DHT22;4618;48.818;9.088;2023-03-23T16:04:21;17.30;1.00
9167;DHT22;4618;48.818;9.088;2023-03-23T16:06:47;17.30;1.00
9167;DHT22;4618;48.818;9.088;2023-03-23T16:09:15;17.20;1.00
9167;DHT22;4618;48.818;9.088;2023-03-23T16:11:41;17.10;1.00
9167;DHT22;4618;48.818;9.088;2023-03-23T16:14:07;17.10;1.00
9167;DHT22;4618;48.818;9.088;2023-03-23T16:16:47;17.10;1.00
9167;DHT22;4618;48.818;9.088;2023-03-23T16:19:14;17.00;1.00
9167;DHT22;4618;48.818;9.088;2023-03-23T16:21:41;17.00;1.00
9167;DHT22;4618;48.818;9.088;2023-03-23T16:24:07;17.00;1.00
9167;DHT22;4618;48.818;9.088;2023-03-23T16:26:34;17.00;1.00
9167;DHT22;4618;48.818;9.088;2023-03-23T16:29:00;16.90;1.00
9167;DHT22;4618;48.818;9.088;2023-03-23T16:31:27;16.80;1.00
9167;DHT22;4618;48.818;9.088;2023-03-23T16:33:53;16.70;1.00
9167;DHT22;4618;48.818;9.088;2023-03-23T16:36:19;16.60;1.00
9167;DHT22;4618;48.818;9.088;2023-03-23T16:38:44;16.60;1.00
9167;DHT22;4618;48.818;9.088;2023-03-23T16:41:10;16.50;1.00
9167;DHT22;4618;48.818;9.088;2023-03-23T16:43:36;16.60;1.00
9167;DHT22;4618;48.818;9.088;2023-03-23T16:46:01;16.60;1.00
9167;DHT22;4618;48.818;9.088;2023-03-23T16:48:27;16.60;1.00
9167;DHT22;4618;48.818;9.088;2023-03-23T16:50:53;16.50;1.00
9167;DHT22;4618;48.818;9.088;2023-03-23T16:53:19;16.40;1.00
9167;DHT22;4618;48.818;9.088;2023-03-23T16:55:45;16.50;1.00
9167;DHT22;4618;48.818;9.088;2023-03-23T16:58:13;16.50;1.00
9167;DHT22;4618;48.818;9.088;2023-03-23T17:00:39;16.40;1.00
9167;DHT22;4618;48.818;9.088;2023-03-23T17:03:05;16.40;1.00
9167;DHT22;4618;48.818;9.088;2023-03-23T17:05:31;16.40;1.00
9167;DHT22;4618;48.818;9.088;2023-03-23T17:07:57;16.30;1.00
9167;DHT22;4618;48.818;9.088;2023-03-23T17:10:24;16.30;1.00
9167;DHT22;4618;48.818;9.088;2023-03-23T17:12:52;16.30;1.00
9167;DHT22;4618;48.818;9.088;2023-03-23T17:15:18;16.30;1.00
9167;DHT22;4618;48.818;9.088;2023-03-23T17:17:43;16.30;1.00
9167;DHT22;4618;48.818;9.088;2023-03-23T17:20:10;16.20;1.00
9167;DHT22;4618;48.818;9.088;2023-03-23T17:22:36;16.20;1.00
9167;DHT22;4618;48.818;9.088;2023-03-23T17:25:03;16.10;1.00
9167;DHT22;4618;48.818;9.088;2023-03-23T17:27:30;16.10;1.00
9167;DHT22;4618;48.818;9.088;2023-03-23T17:29:56;16.10;1.00
9167;DHT22;4618;48.818;9.088;2023-03-23T17:32:22;16.20;1.00
9167;DHT22;4618;48.818;9.088;2023-03-23T17:34:49;16.20;1.00
9167;DHT22;4618;48.818;9.088;2023-03-23T17:37:15;16.20;1.00
9167;DHT22;4618;48.818;9.088;2023-03-23T17:39:41;16.10;1.00
9167;DHT22;4618;48.818;9.088;2023-03-23T17:42:06;16.00;1.00
9167;DHT22;4618;48.818;9.088;2023-03-23T17:44:32;15.90;1.00
9167;DHT22;4618;48.818;9.088;2023-03-23T17:46:58;16.00;1.00
9167;DHT22;4618;48.818;9.088;2023-03-23T17:49:25;15.90;1.00
9167;DHT22;4618;48.818;9.088;2023-03-23T17:51:51;15.90;1.00
9167;DHT22;4618;48.818;9.088;2023-03-23T17:54:16;15.80;1.00
9167;DHT22;4618;48.818;9.088;2023-03-23T17:56:42;15.70;1.00
9167;DHT22;4618;48.818;9.088;2023-03-23T17:59:07;15.70;1.00
9167;DHT22;4618;48.818;9.088;2023-03-23T18:01:33;15.70;1.00
9167;DHT22;4618;48.818;9.088;2023-03-23T18:03:59;15.70;1.00
9167;DHT22;4618;48.818;9.088;2023-03-23T18:06:26;15.70;1.00
9167;DHT22;4618;48.818;9.088;2023-03-23T18:08:51;15.70;1.00
9167;DHT22;4618;48.818;9.088;2023-03-23T18:11:17;15.60;1.00
9167;DHT22;4618;48.818;9.088;2023-03-23T18:13:42;15.70;1.00
9167;DHT22;4618;48.818;9.088;2023-03-23T18:16:08;15.60;1.00
9167;DHT22;4618;48.818;9.088;2023-03-23T18:18:34;15.60;1.00
9167;DHT22;4618;48.818;9.088;2023-03-23T18:21:04;15.70;1.00
9167;DHT22;4618;48.818;9.088;2023-03-23T18:23:31;15.70;1.00